sensor_id;sensor_type;location;lat;lon;timestamp;pressure;altitude;pressure_sealevel;temperature;humidity
53270;BME280;39159;45.634;9.420;2023-02-19T00:01:30;99726.00;;;7.19;100.00
53270;BME280;39159;45.634;9.420;2023-02-19T00:03:59;99723.28;;;7.14;100.00
53270;BME280;39159;45.634;9.420;2023-02-19T00:06:26;99709.72;;;7.14;100.00
53270;BME280;39159;45.634;9.420;2023-02-19T00:08:52;99711.88;;;7.12;100.00
53270;BME280;39159;45.634;9.420;2023-02-19T00:11:22;99714.59;;;7.12;100.00
53270;BME280;39159;45.634;9.420;2023-02-19T00:13:50;99708.59;;;7.10;100.00
53270;BME280;39159;45.634;9.420;2023-02-19T00:16:26;99713.25;;;7.15;100.00
53270;BME280;39159;45.634;9.420;2023-02-19T00:18:53;99702.94;;;7.22;100.00
53270;BME280;39159;45.634;9.420;2023-02-19T00:21:19;99705.69;;;7.27;100.00
53270;BME280;39159;45.634;9.420;2023-02-19T00:23:52;99703.22;;;7.31;100.00
53270;BME280;39159;45.634;9.420;2023-02-19T00:26:18;99683.97;;;7.27;100.00
53270;BME280;39159;45.634;9.420;2023-02-19T00:28:45;99694.03;;;7.32;100.00
53270;BME280;39159;45.634;9.420;2023-02-19T00:33:47;99692.13;;;7.32;100.00
53270;BME280;39159;45.634;9.420;2023-02-19T00:36:15;99689.13;;;7.34;100.00
53270;BME280;39159;45.634;9.420;2023-02-19T00:38:41;99686.69;;;7.32;100.00
53270;BME280;39159;45.634;9.420;2023-02-19T00:41:08;99687.75;;;7.31;100.00
53270;BME280;39159;45.634;9.420;2023-02-19T00:43:49;99689.91;;;7.29;100.00
53270;BME280;39159;45.634;9.420;2023-02-19T00:46:17;99686.69;;;7.32;100.00
53270;BME280;39159;45.634;9.420;2023-02-19T00:48:43;99690.75;;;7.35;100.00
53270;BME280;39159;45.634;9.420;2023-02-19T00:51:08;99683.97;;;7.37;100.00
53270;BME280;39159;45.634;9.420;2023-02-19T00:53:34;99686.44;;;7.39;100.00
53270;BME280;39159;45.634;9.420;2023-02-19T00:55:59;99684.25;;;7.41;100.00
53270;BME280;39159;45.634;9.420;2023-02-19T00:58:25;99678.53;;;7.42;100.00
53270;BME280;39159;45.634;9.420;2023-02-19T01:00:50;99681.53;;;7.41;100.00
53270;BME280;39159;45.634;9.420;2023-02-19T01:03:15;99681.00;;;7.39;100.00
53270;BME280;39159;45.634;9.420;2023-02-19T01:05:41;99681.81;;;7.39;100.00
53270;BME280;39159;45.634;9.420;2023-02-19T01:08:06;99676.38;;;7.39;100.00
53270;BME280;39159;45.634;9.420;2023-02-19T01:10:32;99671.75;;;7.40;100.00
53270;BME280;39159;45.634;9.420;2023-02-19T01:12:57;99677.19;;;7.40;100.00
53270;BME280;39159;45.634;9.420;2023-02-19T01:15:22;99673.91;;;7.38;100.00
53270;BME280;39159;45.634;9.420;2023-02-19T01:17:48;99671.75;;;7.40;100.00
53270;BME280;39159;45.634;9.420;2023-02-19T01:20:13;99672.28;;;7.42;100.00
53270;BME280;39159;45.634;9.420;2023-02-19T01:22:39;99676.66;;;7.43;100.00
53270;BME280;39159;45.634;9.420;2023-02-19T01:25:04;99671.50;;;7.41;100.00
53270;BME280;39159;45.634;9.420;2023-02-19T01:27:30;99669.59;;;7.42;100.00
53270;BME280;39159;45.634;9.420;2023-02-19T01:29:55;99663.59;;;7.40;100.00
53270;BME280;39159;45.634;9.420;2023-02-19T01:32:21;99663.91;;;7.38;100.00
53270;BME280;39159;45.634;9.420;2023-02-19T01:34:46;99668.78;;;7.36;100.00
53270;BME280;39159;45.634;9.420;2023-02-19T01:37:12;99660.34;;;7.33;100.00
53270;BME280;39159;45.634;9.420;2023-02-19T01:39:38;99665.78;;;7.33;100.00
53270;BME280;39159;45.634;9.420;2023-02-19T01:42:04;99654.09;;;7.32;100.00
53270;BME280;39159;45.634;9.420;2023-02-19T01:46:55;99645.66;;;7.23;100.00
53270;BME280;39159;45.634;9.420;2023-02-19T01:49:31;99652.16;;;7.17;100.00
53270;BME280;39159;45.634;9.420;2023-02-19T01:52:03;99652.16;;;7.17;100.00
53270;BME280;39159;45.634;9.420;2023-02-19T01:54:33;99651.63;;;7.10;100.00
53270;BME280;39159;45.634;9.420;2023-02-19T01:57:01;99652.13;;;7.02;100.00
53270;BME280;39159;45.634;9.420;2023-02-19T01:59:30;99645.88;;;6.96;100.00
53270;BME280;39159;45.634;9.420;2023-02-19T02:01:56;99649.41;;;6.92;100.00
53270;BME280;39159;45.634;9.420;2023-02-19T02:04:22;99642.31;;;6.85;100.00
53270;BME280;39159;45.634;9.420;2023-02-19T02:06:53;99633.63;;;6.83;100.00
53270;BME280;39159;45.634;9.420;2023-02-19T02:09:20;99639.03;;;6.78;100.00
53270;BME280;39159;45.634;9.420;2023-02-19T02:12:05;99634.66;;;6.72;100.00
53270;BME280;39159;45.634;9.420;2023-02-19T02:14:35;99637.38;;;6.67;100.00
53270;BME280;39159;45.634;9.420;2023-02-19T02:20:12;99628.13;;;6.68;100.00
53270;BME280;39159;45.634;9.420;2023-02-19T02:30:27;99621.91;;;6.68;100.00
53270;BME280;39159;45.634;9.420;2023-02-19T02:35:44;99612.91;;;6.57;100.00
53270;BME280;39159;45.634;9.420;2023-02-19T02:38:11;99602.56;;;6.49;100.00
53270;BME280;39159;45.634;9.420;2023-02-19T02:40:41;99608.78;;;6.44;100.00
53270;BME280;39159;45.634;9.420;2023-02-19T02:43:07;99608.78;;;6.39;100.00
53270;BME280;39159;45.634;9.420;2023-02-19T02:45:32;99609.03;;;6.37;100.00
53270;BME280;39159;45.634;9.420;2023-02-19T02:50:55;99607.88;;;6.23;100.00
53270;BME280;39159;45.634;9.420;2023-02-19T02:53:30;99603.81;;;6.26;100.00
53270;BME280;39159;45.634;9.420;2023-02-19T02:56:17;99600.81;;;6.22;100.00
53270;BME280;39159;45.634;9.420;2023-02-19T02:58:44;99602.41;;;6.18;100.00
53270;BME280;39159;45.634;9.420;2023-02-19T03:01:18;99603.25;;;6.18;100.00
53270;BME280;39159;45.634;9.420;2023-02-19T03:04:07;99592.09;;;6.15;100.00
53270;BME280;39159;45.634;9.420;2023-02-19T03:06:35;99597.22;;;6.11;100.00
53270;BME280;39159;45.634;9.420;2023-02-19T03:09:09;99596.41;;;6.06;100.00
53270;BME280;39159;45.634;9.420;2023-02-19T03:11:39;99591.78;;;6.01;100.00
53270;BME280;39159;45.634;9.420;2023-02-19T03:14:33;99589.06;;;6.01;100.00
53270;BME280;39159;45.634;9.420;2023-02-19T03:17:27;99597.19;;;6.01;100.00
53270;BME280;39159;45.634;9.420;2023-02-19T03:20:15;99588.50;;;5.99;100.00
53270;BME280;39159;45.634;9.420;2023-02-19T03:22:44;99587.13;;;5.96;100.00
53270;BME280;39159;45.634;9.420;2023-02-19T03:25:37;99586.00;;;5.92;100.00
53270;BME280;39159;45.634;9.420;2023-02-19T03:28:25;99582.78;;;5.95;100.00
53270;BME280;39159;45.634;9.420;2023-02-19T03:31:14;99587.38;;;5.95;100.00
53270;BME280;39159;45.634;9.420;2023-02-19T03:33:43;99586.00;;;5.92;100.00
53270;BME280;39159;45.634;9.420;2023-02-19T03:36:12;99583.50;;;5.86;100.00
53270;BME280;39159;45.634;9.420;2023-02-19T03:38:47;99582.69;;;5.85;100.00
53270;BME280;39159;45.634;9.420;2023-02-19T03:49:47;99587.22;;;5.74;100.00
53270;BME280;39159;45.634;9.420;2023-02-19T03:54:55;99592.09;;;5.72;100.00
53270;BME280;39159;45.634;9.420;2023-02-19T04:00:08;99601.00;;;5.68;100.00
53270;BME280;39159;45.634;9.420;2023-02-19T04:02:54;99597.72;;;5.66;100.00
53270;BME280;39159;45.634;9.420;2023-02-19T04:05:33;99596.59;;;5.61;100.00
53270;BME280;39159;45.634;9.420;2023-02-19T04:08:16;99596.84;;;5.60;100.00
53270;BME280;39159;45.634;9.420;2023-02-19T04:10:45;99599.28;;;5.56;100.00
53270;BME280;39159;45.634;9.420;2023-02-19T04:14:00;99592.75;;;5.52;100.00
53270;BME280;39159;45.634;9.420;2023-02-19T04:16:12;99597.06;;;5.53;100.00
53270;BME280;39159;45.634;9.420;2023-02-19T04:18:40;99594.38;;;5.53;100.00
53270;BME280;39159;45.634;9.420;2023-02-19T04:21:08;99590.03;;;5.52;100.00
53270;BME280;39159;45.634;9.420;2023-02-19T04:23:37;99582.97;;;5.51;100.00
53270;BME280;39159;45.634;9.420;2023-02-19T04:26:05;99578.66;;;5.50;100.00
53270;BME280;39159;45.634;9.420;2023-02-19T04:28:33;99585.69;;;5.51;100.00
53270;BME280;39159;45.634;9.420;2023-02-19T04:30:58;99579.19;;;5.47;100.00
53270;BME280;39159;45.634;9.420;2023-02-19T04:33:24;99575.63;;;5.47;100.00
53270;BME280;39159;45.634;9.420;2023-02-19T04:35:49;99582.16;;;5.46;100.00
53270;BME280;39159;45.634;9.420;2023-02-19T04:38:14;99589.44;;;5.45;100.00
53270;BME280;39159;45.634;9.420;2023-02-19T04:40:40;99585.09;;;5.44;100.00
53270;BME280;39159;45.634;9.420;2023-02-19T04:43:05;99603.59;;;5.52;100.00
53270;BME280;39159;45.634;9.420;2023-02-19T04:45:31;99600.28;;;5.45;100.00
53270;BME280;39159;45.634;9.420;2023-02-19T04:47:57;99604.31;;;5.43;100.00
53270;BME280;39159;45.634;9.420;2023-02-19T04:50:23;99595.78;;;5.29;100.00
53270;BME280;39159;45.634;9.420;2023-02-19T04:52:48;99601.16;;;5.24;100.00
53270;BME280;39159;45.634;9.420;2023-02-19T04:55:14;99600.03;;;5.19;100.00
53270;BME280;39159;45.634;9.420;2023-02-19T04:57:39;99605.53;;;5.25;100.00
53270;BME280;39159;45.634;9.420;2023-02-19T05:00:05;99600.13;;;5.25;100.00
53270;BME280;39159;45.634;9.420;2023-02-19T05:02:32;99598.16;;;5.20;100.00
53270;BME280;39159;45.634;9.420;2023-02-19T05:04:57;99601.53;;;5.05;100.00
53270;BME280;39159;45.634;9.420;2023-02-19T05:07:23;99591.53;;;5.06;100.00
53270;BME280;39159;45.634;9.420;2023-02-19T05:09:48;99588.06;;;5.10;100.00
53270;BME280;39159;45.634;9.420;2023-02-19T05:12:14;99588.88;;;5.11;100.00
53270;BME280;39159;45.634;9.420;2023-02-19T05:14:39;99580.50;;;5.12;100.00
53270;BME280;39159;45.634;9.420;2023-02-19T05:17:04;99590.19;;;5.08;100.00
53270;BME280;39159;45.634;9.420;2023-02-19T05:19:30;99584.28;;;5.11;100.00
53270;BME280;39159;45.634;9.420;2023-02-19T05:21:55;99575.34;;;5.11;100.00
53270;BME280;39159;45.634;9.420;2023-02-19T05:24:21;99583.53;;;5.16;100.00
53270;BME280;39159;45.634;9.420;2023-02-19T05:26:48;99583.25;;;5.17;100.00
53270;BME280;39159;45.634;9.420;2023-02-19T05:29:14;99584.22;;;5.06;100.00
53270;BME280;39159;45.634;9.420;2023-02-19T05:31:39;99591.53;;;5.06;100.00
53270;BME280;39159;45.634;9.420;2023-02-19T05:34:05;99585.03;;;5.07;100.00
53270;BME280;39159;45.634;9.420;2023-02-19T05:36:30;99589.84;;;4.99;100.00
53270;BME280;39159;45.634;9.420;2023-02-19T05:38:56;99585.53;;;4.98;100.00
53270;BME280;39159;45.634;9.420;2023-02-19T05:41:27;99591.50;;;5.01;100.00
53270;BME280;39159;45.634;9.420;2023-02-19T05:43:53;99583.38;;;5.01;100.00
53270;BME280;39159;45.634;9.420;2023-02-19T05:46:21;99578.78;;;5.01;100.00
53270;BME280;39159;45.634;9.420;2023-02-19T05:48:48;99575.19;;;4.95;100.00
53270;BME280;39159;45.634;9.420;2023-02-19T05:51:17;99568.97;;;4.95;100.00
53270;BME280;39159;45.634;9.420;2023-02-19T05:53:43;99573.56;;;4.94;100.00
53270;BME280;39159;45.634;9.420;2023-02-19T05:58:50;99575.91;;;4.86;100.00
53270;BME280;39159;45.634;9.420;2023-02-19T06:01:16;99572.59;;;4.78;100.00
53270;BME280;39159;45.634;9.420;2023-02-19T06:03:42;99570.38;;;4.75;100.00
53270;BME280;39159;45.634;9.420;2023-02-19T06:06:11;99559.00;;;4.73;100.00
53270;BME280;39159;45.634;9.420;2023-02-19T06:08:37;99546.06;;;4.75;100.00
53270;BME280;39159;45.634;9.420;2023-02-19T06:11:03;99550.91;;;4.73;100.00
53270;BME280;39159;45.634;9.420;2023-02-19T06:13:28;99559.84;;;4.74;100.00
53270;BME280;39159;45.634;9.420;2023-02-19T06:15:53;99563.59;;;4.73;100.00
53270;BME280;39159;45.634;9.420;2023-02-19T06:18:19;99578.25;;;4.77;100.00
53270;BME280;39159;45.634;9.420;2023-02-19T06:20:44;99577.41;;;4.71;100.00
53270;BME280;39159;45.634;9.420;2023-02-19T06:23:10;99581.22;;;4.75;100.00
53270;BME280;39159;45.634;9.420;2023-02-19T06:25:35;99582.03;;;4.76;100.00
53270;BME280;39159;45.634;9.420;2023-02-19T06:28:01;99590.44;;;4.80;100.00
53270;BME280;39159;45.634;9.420;2023-02-19T06:30:26;99591.53;;;4.78;100.00
53270;BME280;39159;45.634;9.420;2023-02-19T06:32:52;99598.56;;;4.80;100.00
53270;BME280;39159;45.634;9.420;2023-02-19T06:35:18;99589.41;;;4.81;100.00
53270;BME280;39159;45.634;9.420;2023-02-19T06:37:48;99580.72;;;4.78;100.00
53270;BME280;39159;45.634;9.420;2023-02-19T06:40:13;99572.59;;;4.78;100.00
53270;BME280;39159;45.634;9.420;2023-02-19T06:42:39;99573.47;;;4.84;100.00
53270;BME280;39159;45.634;9.420;2023-02-19T06:45:04;99572.69;;;4.89;100.00
53270;BME280;39159;45.634;9.420;2023-02-19T06:47:33;99578.16;;;4.94;100.00
53270;BME280;39159;45.634;9.420;2023-02-19T06:49:58;99575.47;;;4.94;100.00
53270;BME280;39159;45.634;9.420;2023-02-19T06:52:25;99575.19;;;4.95;100.00
53270;BME280;39159;45.634;9.420;2023-02-19T06:54:50;99574.94;;;4.97;100.00
53270;BME280;39159;45.634;9.420;2023-02-19T06:57:16;99578.47;;;4.97;100.00
53270;BME280;39159;45.634;9.420;2023-02-19T06:59:42;99577.13;;;5.00;100.00
53270;BME280;39159;45.634;9.420;2023-02-19T07:02:10;99566.44;;;5.15;100.00
53270;BME280;39159;45.634;9.420;2023-02-19T07:04:35;99564.44;;;5.33;100.00
53270;BME280;39159;45.634;9.420;2023-02-19T07:07:01;99563.16;;;5.40;100.00
53270;BME280;39159;45.634;9.420;2023-02-19T07:09:26;99569.97;;;5.48;100.00
53270;BME280;39159;45.634;9.420;2023-02-19T07:11:52;99566.25;;;5.54;100.00
53270;BME280;39159;45.634;9.420;2023-02-19T07:14:18;99561.94;;;5.58;100.00
53270;BME280;39159;45.634;9.420;2023-02-19T07:16:44;99563.06;;;5.63;100.00
53270;BME280;39159;45.634;9.420;2023-02-19T07:19:12;99574.97;;;5.67;100.00
53270;BME280;39159;45.634;9.420;2023-02-19T07:21:38;99581.00;;;5.74;100.00
53270;BME280;39159;45.634;9.420;2023-02-19T07:24:04;99575.06;;;5.77;100.00
53270;BME280;39159;45.634;9.420;2023-02-19T07:26:30;99574.28;;;5.81;100.00
53270;BME280;39159;45.634;9.420;2023-02-19T07:28:55;99567.81;;;5.88;100.00
53270;BME280;39159;45.634;9.420;2023-02-19T07:31:22;99580.06;;;5.95;100.00
53270;BME280;39159;45.634;9.420;2023-02-19T07:33:49;99565.47;;;5.96;100.00
53270;BME280;39159;45.634;9.420;2023-02-19T07:36:16;99554.78;;;5.85;100.00
53270;BME280;39159;45.634;9.420;2023-02-19T07:38:42;99550.19;;;5.85;100.00
53270;BME280;39159;45.634;9.420;2023-02-19T07:41:08;99557.78;;;5.83;100.00
53270;BME280;39159;45.634;9.420;2023-02-19T07:43:35;99560.72;;;5.81;100.00
53270;BME280;39159;45.634;9.420;2023-02-19T07:46:09;99573.72;;;5.79;100.00
53270;BME280;39159;45.634;9.420;2023-02-19T07:48:36;99580.44;;;5.72;100.00
53270;BME280;39159;45.634;9.420;2023-02-19T07:51:03;99573.13;;;5.72;100.00
53270;BME280;39159;45.634;9.420;2023-02-19T07:53:29;99570.97;;;5.69;100.00
53270;BME280;39159;45.634;9.420;2023-02-19T07:56:03;99580.44;;;5.72;100.00
53270;BME280;39159;45.634;9.420;2023-02-19T07:58:29;99583.66;;;5.69;100.00
53270;BME280;39159;45.634;9.420;2023-02-19T08:00:55;99582.31;;;5.71;100.00
53270;BME280;39159;45.634;9.420;2023-02-19T08:03:21;99575.94;;;5.88;100.00
53270;BME280;39159;45.634;9.420;2023-02-19T08:05:46;99576.84;;;5.98;100.00
53270;BME280;39159;45.634;9.420;2023-02-19T08:08:14;99568.50;;;6.10;100.00
53270;BME280;39159;45.634;9.420;2023-02-19T08:10:40;99570.44;;;6.20;100.00
53270;BME280;39159;45.634;9.420;2023-02-19T08:13:26;99564.53;;;6.28;100.00
53270;BME280;39159;45.634;9.420;2023-02-19T08:15:54;99564.03;;;6.36;100.00
53270;BME280;39159;45.634;9.420;2023-02-19T08:18:25;99561.88;;;6.49;100.00
53270;BME280;39159;45.634;9.420;2023-02-19T08:20:51;99567.06;;;6.55;100.00
53270;BME280;39159;45.634;9.420;2023-02-19T08:23:17;99565.72;;;6.58;100.00
53270;BME280;39159;45.634;9.420;2023-02-19T08:25:45;99561.13;;;6.63;100.00
53270;BME280;39159;45.634;9.420;2023-02-19T08:28:11;99556.25;;;6.71;100.00
53270;BME280;39159;45.634;9.420;2023-02-19T08:30:38;99551.69;;;6.81;100.00
53270;BME280;39159;45.634;9.420;2023-02-19T08:33:05;99568.25;;;6.95;100.00
53270;BME280;39159;45.634;9.420;2023-02-19T08:35:31;99549.28;;;7.05;100.00
53270;BME280;39159;45.634;9.420;2023-02-19T08:37:57;99551.47;;;7.19;100.00
53270;BME280;39159;45.634;9.420;2023-02-19T08:40:24;99560.69;;;7.28;100.00
53270;BME280;39159;45.634;9.420;2023-02-19T08:42:50;99567.50;;;7.41;100.00
53270;BME280;39159;45.634;9.420;2023-02-19T08:45:16;99549.56;;;7.45;100.00
53270;BME280;39159;45.634;9.420;2023-02-19T08:47:42;99547.13;;;7.54;100.00
53270;BME280;39159;45.634;9.420;2023-02-19T08:50:07;99550.38;;;7.61;100.00
53270;BME280;39159;45.634;9.420;2023-02-19T08:52:33;99541.66;;;7.64;100.00
53270;BME280;39159;45.634;9.420;2023-02-19T08:55:00;99545.44;;;7.73;100.00
53270;BME280;39159;45.634;9.420;2023-02-19T08:57:26;99542.47;;;7.75;100.00
53270;BME280;39159;45.634;9.420;2023-02-19T08:59:54;99545.16;;;7.85;100.00
53270;BME280;39159;45.634;9.420;2023-02-19T09:02:20;99555.22;;;7.89;100.00
53270;BME280;39159;45.634;9.420;2023-02-19T09:04:46;99553.81;;;8.02;100.00
53270;BME280;39159;45.634;9.420;2023-02-19T09:07:11;99558.66;;;8.16;100.00
53270;BME280;39159;45.634;9.420;2023-02-19T09:09:36;99554.81;;;8.27;100.00
53270;BME280;39159;45.634;9.420;2023-02-19T09:12:06;99553.41;;;8.40;100.00
53270;BME280;39159;45.634;9.420;2023-02-19T09:14:32;99541.94;;;8.53;100.00
53270;BME280;39159;45.634;9.420;2023-02-19T09:16:59;99557.13;;;8.64;100.00
53270;BME280;39159;45.634;9.420;2023-02-19T09:19:25;99557.88;;;8.75;100.00
53270;BME280;39159;45.634;9.420;2023-02-19T09:21:51;99556.78;;;8.81;100.00
53270;BME280;39159;45.634;9.420;2023-02-19T09:24:17;99553.41;;;8.95;100.00
53270;BME280;39159;45.634;9.420;2023-02-19T09:26:42;99554.16;;;9.05;100.00
53270;BME280;39159;45.634;9.420;2023-02-19T09:29:08;99541.25;;;9.21;100.00
53270;BME280;39159;45.634;9.420;2023-02-19T09:31:33;99544.94;;;9.36;100.00
53270;BME280;39159;45.634;9.420;2023-02-19T09:33:59;99549.19;;;9.52;100.00
53270;BME280;39159;45.634;9.420;2023-02-19T09:36:25;99555.47;;;9.77;100.00
53270;BME280;39159;45.634;9.420;2023-02-19T09:38:50;99549.53;;;9.99;100.00
53270;BME280;39159;45.634;9.420;2023-02-19T09:41:23;99545.47;;;10.20;100.00
53270;BME280;39159;45.634;9.420;2023-02-19T09:43:50;99551.06;;;10.34;100.00
53270;BME280;39159;45.634;9.420;2023-02-19T09:49:17;99547.66;;;10.66;100.00
53270;BME280;39159;45.634;9.420;2023-02-19T09:51:50;99539.63;;;10.75;100.00
53270;BME280;39159;45.634;9.420;2023-02-19T09:54:24;99542.66;;;10.92;100.00
53270;BME280;39159;45.634;9.420;2023-02-19T09:56:52;99538.88;;;11.07;100.00
53270;BME280;39159;45.634;9.420;2023-02-19T09:59:21;99540.13;;;11.15;100.00
53270;BME280;39159;45.634;9.420;2023-02-19T10:01:54;99539.13;;;11.25;100.00
53270;BME280;39159;45.634;9.420;2023-02-19T10:04:22;99535.22;;;11.31;100.00
53270;BME280;39159;45.634;9.420;2023-02-19T10:06:48;99527.16;;;11.39;100.00
53270;BME280;39159;45.634;9.420;2023-02-19T10:09:24;99533.38;;;11.59;100.00
53270;BME280;39159;45.634;9.420;2023-02-19T10:11:53;99536.31;;;11.62;100.00
53270;BME280;39159;45.634;9.420;2023-02-19T10:14:31;99535.84;;;11.74;100.00
53270;BME280;39159;45.634;9.420;2023-02-19T10:17:00;99544.06;;;11.74;100.00
53270;BME280;39159;45.634;9.420;2023-02-19T10:19:27;99541.72;;;11.81;100.00
53270;BME280;39159;45.634;9.420;2023-02-19T10:21:53;99536.25;;;11.81;100.00
53270;BME280;39159;45.634;9.420;2023-02-19T10:24:24;99541.00;;;11.76;100.00
53270;BME280;39159;45.634;9.420;2023-02-19T10:26:51;99543.53;;;11.72;100.00
53270;BME280;39159;45.634;9.420;2023-02-19T10:29:17;99548.72;;;11.74;100.00
53270;BME280;39159;45.634;9.420;2023-02-19T10:31:43;99546.72;;;11.93;99.82
53270;BME280;39159;45.634;9.420;2023-02-19T10:34:17;99547.25;;;11.95;98.98
53270;BME280;39159;45.634;9.420;2023-02-19T10:36:47;99540.84;;;12.14;97.90
53270;BME280;39159;45.634;9.420;2023-02-19T10:41:48;99536.31;;;12.23;97.20
53270;BME280;39159;45.634;9.420;2023-02-19T10:44:20;99527.47;;;12.40;96.78
53270;BME280;39159;45.634;9.420;2023-02-19T10:46:49;99528.06;;;12.51;95.22
53270;BME280;39159;45.634;9.420;2023-02-19T10:49:27;99536.25;;;12.78;93.89
53270;BME280;39159;45.634;9.420;2023-02-19T10:51:56;99526.75;;;12.98;91.29
53270;BME280;39159;45.634;9.420;2023-02-19T10:56:51;99522.25;;;13.02;90.55
53270;BME280;39159;45.634;9.420;2023-02-19T11:02:01;99520.34;;;13.03;89.16
53270;BME280;39159;45.634;9.420;2023-02-19T11:04:31;99517.97;;;12.88;89.73
53270;BME280;39159;45.634;9.420;2023-02-19T11:07:16;99515.25;;;13.10;89.22
53270;BME280;39159;45.634;9.420;2023-02-19T11:09:48;99507.19;;;13.14;89.51
53270;BME280;39159;45.634;9.420;2023-02-19T11:12:25;99510.06;;;13.09;88.78
53270;BME280;39159;45.634;9.420;2023-02-19T11:14:51;99513.31;;;13.11;88.35
53270;BME280;39159;45.634;9.420;2023-02-19T11:17:22;99501.75;;;13.22;87.35
53270;BME280;39159;45.634;9.420;2023-02-19T11:20:02;99494.28;;;13.28;88.54
53270;BME280;39159;45.634;9.420;2023-02-19T11:22:40;99491.00;;;13.48;86.63
53270;BME280;39159;45.634;9.420;2023-02-19T11:28:09;99481.25;;;13.65;85.68
53270;BME280;39159;45.634;9.420;2023-02-19T11:30:45;99468.25;;;13.79;84.49
53270;BME280;39159;45.634;9.420;2023-02-19T11:36:25;99473.28;;;13.86;83.90
53270;BME280;39159;45.634;9.420;2023-02-19T11:38:51;99464.13;;;13.99;83.46
53270;BME280;39159;45.634;9.420;2023-02-19T11:41:58;99472.25;;;13.73;83.15
53270;BME280;39159;45.634;9.420;2023-02-19T12:00:43;99431.03;;;14.04;81.52
53270;BME280;39159;45.634;9.420;2023-02-19T12:09:05;99433.69;;;14.36;78.26
53270;BME280;39159;45.634;9.420;2023-02-19T12:19:59;99408.97;;;14.27;79.52
53270;BME280;39159;45.634;9.420;2023-02-19T12:22:32;99403.81;;;14.43;78.29
53270;BME280;39159;45.634;9.420;2023-02-19T12:27:49;99389.59;;;14.93;76.90
53270;BME280;39159;45.634;9.420;2023-02-19T12:36:26;99384.06;;;15.10;74.85
53270;BME280;39159;45.634;9.420;2023-02-19T12:44:23;99373.88;;;15.02;73.72
53270;BME280;39159;45.634;9.420;2023-02-19T12:46:57;99366.59;;;15.06;73.93
53270;BME280;39159;45.634;9.420;2023-02-19T12:49:37;99366.63;;;14.98;72.19
53270;BME280;39159;45.634;9.420;2023-02-19T12:52:10;99370.00;;;15.12;71.89
53270;BME280;39159;45.634;9.420;2023-02-19T12:54:40;99358.88;;;14.82;73.19
53270;BME280;39159;45.634;9.420;2023-02-19T12:57:12;99347.16;;;15.11;72.04
53270;BME280;39159;45.634;9.420;2023-02-19T12:59:57;99346.06;;;15.12;72.37
53270;BME280;39159;45.634;9.420;2023-02-19T13:02:47;99340.00;;;15.28;70.97
53270;BME280;39159;45.634;9.420;2023-02-19T13:08:55;99327.19;;;15.41;69.42
53270;BME280;39159;45.634;9.420;2023-02-19T13:11:08;99323.44;;;15.45;68.84
53270;BME280;39159;45.634;9.420;2023-02-19T13:13:42;99323.97;;;15.39;69.87
53270;BME280;39159;45.634;9.420;2023-02-19T13:16:15;99326.34;;;15.40;69.23
53270;BME280;39159;45.634;9.420;2023-02-19T13:18:46;99311.19;;;15.64;69.35
53270;BME280;39159;45.634;9.420;2023-02-19T13:21:13;99302.72;;;15.78;68.21
53270;BME280;39159;45.634;9.420;2023-02-19T13:24:07;99302.94;;;15.64;68.08
53270;BME280;39159;45.634;9.420;2023-02-19T13:35:24;99289.34;;;15.67;67.03
53270;BME280;39159;45.634;9.420;2023-02-19T13:37:50;99295.25;;;15.78;66.32
53270;BME280;39159;45.634;9.420;2023-02-19T13:42:54;99285.44;;;15.68;66.23
53270;BME280;39159;45.634;9.420;2023-02-19T13:45:32;99283.59;;;15.81;66.01
53270;BME280;39159;45.634;9.420;2023-02-19T13:48:01;99282.88;;;15.72;65.17
53270;BME280;39159;45.634;9.420;2023-02-19T13:50:37;99280.72;;;15.69;65.22
53270;BME280;39159;45.634;9.420;2023-02-19T14:04:28;99278.09;;;15.81;64.85
53270;BME280;39159;45.634;9.420;2023-02-19T14:14:42;99265.69;;;15.66;64.37
53270;BME280;39159;45.634;9.420;2023-02-19T14:25:30;99253.06;;;15.74;64.89
53270;BME280;39159;45.634;9.420;2023-02-19T14:33:14;99260.84;;;15.72;64.07
53270;BME280;39159;45.634;9.420;2023-02-19T14:35:43;99270.50;;;15.48;63.97
53270;BME280;39159;45.634;9.420;2023-02-19T14:38:19;99263.78;;;15.37;64.55
53270;BME280;39159;45.634;9.420;2023-02-19T14:40:46;99262.38;;;15.22;65.45
53270;BME280;39159;45.634;9.420;2023-02-19T14:43:14;99254.94;;;15.23;65.70
53270;BME280;39159;45.634;9.420;2023-02-19T14:46:03;99256.56;;;15.24;65.35
53270;BME280;39159;45.634;9.420;2023-02-19T14:48:31;99255.66;;;15.11;66.38
53270;BME280;39159;45.634;9.420;2023-02-19T14:51:29;99258.34;;;14.90;67.78
53270;BME280;39159;45.634;9.420;2023-02-19T14:53:56;99262.72;;;14.82;68.65
53270;BME280;39159;45.634;9.420;2023-02-19T14:56:25;99258.69;;;14.80;68.46
53270;BME280;39159;45.634;9.420;2023-02-19T15:01:40;99250.63;;;14.75;69.40
53270;BME280;39159;45.634;9.420;2023-02-19T15:04:20;99255.16;;;14.70;69.91
53270;BME280;39159;45.634;9.420;2023-02-19T15:06:45;99249.03;;;14.65;70.03
53270;BME280;39159;45.634;9.420;2023-02-19T15:09:11;99250.66;;;14.48;70.15
53270;BME280;39159;45.634;9.420;2023-02-19T15:11:40;99248.72;;;14.49;70.44
53270;BME280;39159;45.634;9.420;2023-02-19T15:14:07;99251.00;;;14.47;70.67
53270;BME280;39159;45.634;9.420;2023-02-19T15:16:38;99251.16;;;14.42;71.84
53270;BME280;39159;45.634;9.420;2023-02-19T15:19:06;99245.50;;;14.38;71.89
53270;BME280;39159;45.634;9.420;2023-02-19T15:21:36;99251.50;;;14.40;71.98
53270;BME280;39159;45.634;9.420;2023-02-19T15:24:04;99258.78;;;14.27;71.91
53270;BME280;39159;45.634;9.420;2023-02-19T15:26:41;99256.84;;;14.28;71.75
53270;BME280;39159;45.634;9.420;2023-02-19T15:29:13;99254.25;;;14.31;70.62
53270;BME280;39159;45.634;9.420;2023-02-19T15:34:20;99260.91;;;14.13;70.04
53270;BME280;39159;45.634;9.420;2023-02-19T15:36:48;99259.91;;;14.00;70.10
53270;BME280;39159;45.634;9.420;2023-02-19T15:39:28;99247.03;;;13.92;70.71
53270;BME280;39159;45.634;9.420;2023-02-19T15:41:59;99253.00;;;13.85;70.23
53270;BME280;39159;45.634;9.420;2023-02-19T15:47:33;99255.56;;;13.73;71.25